• Join FlightAware (Why Join?)
  • Login
  • US Flag 
09:29AM EDT


 

Airport Tracker/Info


-or-


 

Live Flight TrackerFlight Track Log ✈ N902AC ✈ 16-Jun-2013 ✈ KNEW - KCPF

Flight Track Log - Related Links

Times and Time Zones

All times are in EDT time to prevent confusion due to time zone crossing. See the N902AC flight status page for this flight to view local times or setup timezone preferences in your user account.

Time Position Orientation Groundspeed Altitude Reporting Facility
EDT Latitude Longitude Course Direction KTS MPH feet Rate Location/Type
10:51AM 30.0611 -90.0319 North 152 175 600  Level Houston Center
10:52AM 30.1047 -90.0275 North 157 181 2,200 1,560 Climbing Houston Center
10:53AM 30.1400 -90.0228 North 158 182 3,500 1,260 Climbing Houston Center
10:54AM 30.1867 -90.0189 North 162 186 4,600 1,020 Climbing Houston Center
10:55AM 30.2428 -90.0147 North 180 207 5,700 1,200 Climbing Houston Center
10:56AM 30.2975 -90.0142 North 194 223 7,200 1,500 Climbing Houston Center
10:57AM 30.3572 -89.9992 12° North 184 212 8,800 1,260 Climbing Houston Center
10:58AM 30.4128 -89.9856 12° North 196 226 9,800 1,080 Climbing Houston Center
10:59AM 30.4714 -89.9731 10° North 209 241 11,100 1,380 Climbing Houston Center
11:00AM 30.5256 -89.9622 10° North 199 229 12,700 1,320 Climbing Houston Center
11:01AM 30.5778 -89.9494 12° North 192 221 13,900 1,020 Climbing Houston Center
11:02AM 30.6347 -89.9389 North 202 232 14,800 1,080 Climbing Houston Center
11:03AM 30.6928 -89.9233 13° North 211 243 16,200 1,380 Climbing Houston Center
11:04AM 30.7453 -89.9108 12° North 198 228 17,700 1,140 Climbing Houston Center
11:05AM 30.7981 -89.8958 14° North 195 224 18,600 1,020 Climbing Houston Center
11:06AM 30.8642 -89.8775 13° North 202 232 19,900 960 Climbing Houston Center
11:07AM 30.9169 -89.8406 31° Northeast 220 253 20,700 780 Climbing Houston Center
11:08AM 30.9686 -89.7964 36° Northeast 227 261 21,600 900 Climbing Houston Center
11:09AM 31.0189 -89.7528 37° Northeast 227 261 22,600 660 Climbing Houston Center
11:10AM 31.0686 -89.7075 38° Northeast 227 261 23,000 240 Climbing Houston Center
11:11AM 31.1217 -89.6539 41° Northeast 242 278 23,100  Climbing Houston Center
11:12AM 31.1822 -89.6011 37° Northeast 264 304 23,000 -60 Descending Houston Center
11:13AM 31.2536 -89.5311 40° Northeast 276 318 23,000  Level Houston Center
11:14AM 31.3078 -89.4833 37° Northeast 276 318 23,000  Level Houston Center
11:15AM 31.3664 -89.4239 41° Northeast 277 319 23,000  Level Houston Center
11:16AM 31.4433 -89.3550 37° Northeast 286 329 23,000  Level Houston Center
11:17AM 31.5039 -89.2983 39° Northeast 282 325 23,000  Level Houston Center
11:18AM 31.5628 -89.2386 41° Northeast 280 322 23,000  Level Houston Center
11:19AM 31.6256 -89.1819 38° Northeast 282 325 23,000  Level Houston Center
11:20AM 31.6850 -89.1211 41° Northeast 282 325 23,000  Level Houston Center
11:22AM 31.7475 -89.0642 38° Northeast 282 325 23,000  Level Houston Center
11:23AM 31.8089 -89.0056 39° Northeast 284 327 23,000  Level Houston Center
11:24AM 31.8833 -88.9369 38° Northeast 283 326 23,000  Level Houston Center
11:24AM 31.8933 -88.9308 27° Northeast 278 320 23,000  Level Memphis Center
11:25AM 31.9614 -88.8661 39° Northeast 285 328 23,000  Level Memphis Center
11:26AM 32.0236 -88.8136 36° Northeast 290 334 23,000  Level Memphis Center
11:27AM 32.0894 -88.7536 38° Northeast 290 334 23,000  Level Memphis Center
11:28AM 32.1472 -88.6986 39° Northeast 290 334 23,000  Level Memphis Center
11:29AM 32.2111 -88.6411 37° Northeast 290 334 23,000  Level Memphis Center
11:30AM 32.2731 -88.5786 40° Northeast 290 334 23,000  Level Memphis Center
11:31AM 32.3367 -88.5158 40° Northeast 280 322 23,000  Level Memphis Center
11:32AM 32.3964 -88.4531 42° Northeast 275 316 23,000  Level Memphis Center
11:33AM 32.4600 -88.3925 39° Northeast 281 323 23,000  Level Memphis Center
11:34AM 32.5178 -88.3369 39° Northeast 287 330 23,000  Level Memphis Center
11:36AM 32.6722 -88.1917 38° Northeast 286 329 23,000  Level Atlanta Center
11:37AM 32.7219 -88.1397 41° Northeast 286 329 23,000  Level Atlanta Center
11:38AM 32.7914 -88.0664 42° Northeast 292 336 23,000  Level Atlanta Center
11:39AM 32.8539 -88.0050 40° Northeast 292 336 23,000  Level Atlanta Center
11:40AM 32.9206 -87.9436 38° Northeast 292 336 23,000  Level Atlanta Center
11:41AM 32.9828 -87.8819 40° Northeast 292 336 23,000  Level Atlanta Center
11:42AM 33.0392 -87.8178 44° Northeast 286 329 23,000  Level Atlanta Center
11:43AM 33.1036 -87.7583 38° Northeast 286 329 23,000  Level Atlanta Center
11:44AM 33.1681 -87.6967 39° Northeast 286 329 23,000  Level Atlanta Center
11:45AM 33.2303 -87.6347 40° Northeast 292 336 23,000  Level Atlanta Center
11:46AM 33.2947 -87.5728 39° Northeast 292 336 23,000  Level Atlanta Center
11:47AM 33.3572 -87.5106 40° Northeast 292 336 23,000  Level Atlanta Center
11:48AM 33.4194 -87.4483 40° Northeast 292 336 23,000  Level Atlanta Center
11:49AM 33.4839 -87.3836 40° Northeast 292 336 23,000  Level Atlanta Center
11:50AM 33.5458 -87.3214 40° Northeast 292 336 23,000  Level Atlanta Center
11:51AM 33.6122 -87.2614 37° Northeast 292 336 23,000  Level Atlanta Center
11:52AM 33.6744 -87.1989 40° Northeast 292 336 23,000  Level Atlanta Center
11:53AM 33.7386 -87.1364 39° Northeast 292 336 23,000  Level Atlanta Center
11:54AM 33.8072 -87.0614 42° Northeast 292 336 23,000  Level Atlanta Center
11:55AM 33.8714 -86.9986 39° Northeast 292 336 23,000  Level Atlanta Center
11:56AM 33.9333 -86.9356 40° Northeast 292 336 23,000  Level Atlanta Center
11:58AM 34.0328 -86.8306 41° Northeast 296 341 23,000  Level Memphis Center
11:59AM 34.0978 -86.7703 38° Northeast 296 341 23,000  Level Memphis Center
12:00PM 34.1586 -86.7050 42° Northeast 296 341 23,000  Level Memphis Center
12:01PM 34.2256 -86.6419 38° Northeast 296 341 23,000  Level Memphis Center
12:02PM 34.2861 -86.5764 42° Northeast 296 341 23,000  Level Memphis Center
12:03PM 34.3511 -86.5131 39° Northeast 296 341 23,000  Level Memphis Center
12:04PM 34.4136 -86.4500 40° Northeast 296 341 23,000  Level Memphis Center
12:05PM 34.4764 -86.3892 39° Northeast 296 341 23,000  Level Memphis Center
12:06PM 34.5414 -86.3281 38° Northeast 296 341 23,000  Level Memphis Center
12:07PM 34.6039 -86.2644 40° Northeast 296 341 23,000  Level Memphis Center
12:08PM 34.6708 -86.2033 37° Northeast 296 341 23,000  Level Memphis Center
12:09PM 34.7311 -86.1397 41° Northeast 296 341 23,000  Level Memphis Center
12:10PM 34.7978 -86.0781 37° Northeast 296 341 23,000  Level Memphis Center
12:11PM 34.8522 -86.0197 41° Northeast 291 335 23,000  Level Memphis Center
12:12PM 34.9125 -85.9533 42° Northeast 291 335 23,000  Level Memphis Center
12:13PM 34.9769 -85.8892 39° Northeast 296 341 23,000  Level Memphis Center
12:14PM 35.0394 -85.8275 39° Northeast 296 341 23,000  Level Memphis Center
12:15PM 35.1036 -85.7606 40° Northeast 296 341 23,000  Level Memphis Center
12:16PM 35.1636 -85.6936 42° Northeast 291 335 23,000  Level Memphis Center
12:17PM 35.2258 -85.6267 41° Northeast 291 335 23,000  Level Memphis Center
12:18PM 35.2836 -85.5572 44° Northeast 291 335 23,000  Level Memphis Center
12:20PM 35.4356 -85.3847 43° Northeast 289 333 23,000  Level Atlanta Center
12:21PM 35.4947 -85.3167 43° Northeast 289 333 23,000  Level Atlanta Center
12:22PM 35.5581 -85.2461 42° Northeast 289 333 23,000  Level Atlanta Center
12:23PM 35.6169 -85.1756 44° Northeast 289 333 23,000  Level Atlanta Center
12:24PM 35.6783 -85.1047 43° Northeast 289 333 23,000  Level Atlanta Center
12:25PM 35.7414 -85.0392 40° Northeast 294 338 23,000  Level Atlanta Center
12:26PM 35.8022 -84.9733 41° Northeast 294 338 23,000  Level Atlanta Center
12:27PM 35.8675 -84.9022 41° Northeast 294 338 23,000  Level Atlanta Center
12:28PM 35.8889 -84.8789 41° Northeast 301 346 23,000  Level Indianapolis Center
12:28PM 35.9264 -84.8439 37° Northeast 294 338 23,000  Level Atlanta Center
12:29PM 35.9914 -84.7753 40° Northeast 294 338 23,000  Level Atlanta Center
12:30PM 36.0544 -84.7067 41° Northeast 299 344 23,000  Level Atlanta Center
12:31PM 36.1153 -84.6403 41° Northeast 294 338 23,000  Level Atlanta Center
12:32PM 36.1522 -84.6000 41° Northeast 300 345 23,000  Level Indianapolis Center
12:33PM 36.2153 -84.5331 41° Northeast 298 343 23,000  Level Indianapolis Center
12:34PM 36.2772 -84.4644 42° Northeast 301 346 23,000  Level Indianapolis Center
12:35PM 36.3392 -84.3953 42° Northeast 300 345 23,000  Level Indianapolis Center
12:36PM 36.4047 -84.3297 39° Northeast 302 348 23,000 -240 Level Indianapolis Center
12:37PM 36.4678 -84.2600 42° Northeast 304 350 22,600 -840 Descending Indianapolis Center
12:38PM 36.5392 -84.1722 45° Northeast 332 382 21,300 -1,200 Descending Indianapolis Center
12:39PM 36.6108 -84.0956 41° Northeast 338 389 20,200 -1,260 Descending Indianapolis Center
12:40PM 36.6844 -84.0228 38° Northeast 337 388 18,800 -1,440 Descending Indianapolis Center
12:41PM 36.7719 -83.9336 39° Northeast 345 397 17,300 -1,320 Descending Indianapolis Center
12:42PM 36.8442 -83.8611 39° Northeast 334 384 16,200 -1,440 Descending Indianapolis Center
12:43PM 36.9094 -83.7819 44° Northeast 328 377 14,400 -1,680 Descending Indianapolis Center
12:44PM 36.9783 -83.7053 42° Northeast 329 379 12,800 -1,440 Descending Indianapolis Center
12:45PM 37.0447 -83.6356 40° Northeast 316 364 11,500 -1,560 Descending Indianapolis Center
12:46PM 37.1075 -83.5633 43° Northeast 308 354 9,700 -1,800 Descending Indianapolis Center